Time;durP1;ratioP1;P1;durP2;ratioP2;P2;SDS_P1;SDS_P2;PMS_P1;PMS_P2;Temp;Humidity;BMP_temperature;BMP_pressure;BME280_temperature;BME280_humidity;BME280_pressure;Samples;Min_cycle;Max_cycle;Signal;HPM_P1;HPM_P2
2021/05/25 00:01:37;;;;;;;7.37;4.27;;;;;;;20.71;49.73;100318.28;5097676;28;20454;-52
2021/05/25 00:04:05;;;;;;;9.30;4.87;;;;;;;20.43;50.73;100323.69;5096486;28;20482;-49
2021/05/25 00:06:32;;;;;;;8.67;4.67;;;;;;;20.48;50.54;100320.16;5097666;28;20561;-52
2021/05/25 00:08:59;;;;;;;9.70;4.30;;;;;;;20.43;50.78;100311.47;5096740;28;20565;-50
2021/05/25 00:11:27;;;;;;;7.97;3.90;;;;;;;20.17;51.23;100317.72;5092747;28;20869;-47
2021/05/25 00:13:54;;;;;;;10.90;4.40;;;;;;;20.30;50.88;100317.66;5076987;28;20575;-50
2021/05/25 00:16:21;;;;;;;7.90;4.17;;;;;;;20.44;49.78;100314.94;5075281;28;20907;-54
2021/05/25 00:18:48;;;;;;;4.20;3.50;;;;;;;20.07;50.77;100311.66;5076415;28;20455;-51
2021/05/25 00:21:15;;;;;;;6.83;3.57;;;;;;;19.83;52.00;100312.56;5074845;28;20488;-50
2021/05/25 00:23:43;;;;;;;7.23;3.20;;;;;;;19.87;51.26;100308.19;5076756;28;20839;-56
2021/05/25 00:26:10;;;;;;;5.43;3.60;;;;;;;20.06;50.98;100306.41;5075869;28;20934;-51
2021/05/25 00:28:39;;;;;;;5.53;3.17;;;;;;;20.02;50.97;100302.94;5076879;28;20483;-50
2021/05/25 00:31:06;;;;;;;4.97;3.30;;;;;;;19.89;51.15;100298.63;5075223;28;20482;-49
2021/05/25 00:33:33;;;;;;;5.73;3.33;;;;;;;20.10;50.85;100295.91;5076843;28;20478;-54
2021/05/25 00:36:00;;;;;;;5.27;3.23;;;;;;;20.23;50.08;100295.84;5074482;28;20489;-53
2021/05/25 00:38:27;;;;;;;6.20;3.30;;;;;;;20.35;49.38;100293.16;5076377;28;20552;-51
2021/05/25 00:40:54;;;;;;;4.80;3.17;;;;;;;19.97;51.17;100291.63;5075849;28;20916;-53
2021/05/25 00:43:22;;;;;;;4.03;2.80;;;;;;;19.80;51.14;100291.66;5076950;28;20489;-51
2021/05/25 00:45:49;;;;;;;5.17;3.00;;;;;;;20.09;50.49;100288.94;5074217;28;20483;-53
2021/05/25 00:48:16;;;;;;;4.03;2.90;;;;;;;19.99;50.80;100284.63;5076838;28;20461;-52
2021/05/25 00:50:44;;;;;;;8.57;3.43;;;;;;;19.69;51.67;100289.09;5074910;28;20478;-48
2021/05/25 00:53:11;;;;;;;5.33;3.10;;;;;;;19.87;50.70;100276.78;5094125;28;20466;-53
2021/05/25 00:55:39;;;;;;;4.43;2.50;;;;;;;20.03;50.52;100272.38;5096035;28;20478;-52
2021/05/25 00:58:09;;;;;;;4.37;2.87;;;;;;;20.02;50.58;100266.28;5097172;28;20454;-52
2021/05/25 01:00:38;;;;;;;7.20;3.07;;;;;;;19.85;50.77;100279.44;5095440;28;20486;-52
2021/05/25 01:03:07;;;;;;;7.83;3.63;;;;;;;19.83;50.80;100276.81;5097000;28;20474;-49
2021/05/25 01:05:34;;;;;;;5.70;3.10;;;;;;;19.92;50.63;100273.28;5086693;28;20565;-54
2021/05/25 01:08:02;;;;;;;5.83;3.37;;;;;;;19.99;50.45;100275.91;5076640;28;20550;-49
2021/05/25 01:10:31;;;;;;;5.27;3.50;;;;;;;19.58;51.84;100283.03;5075577;28;20475;-49
2021/05/25 01:13:01;;;;;;;4.17;3.07;;;;;;;19.82;50.78;100279.44;5076877;28;20486;-47
2021/05/25 01:15:29;;;;;;;4.73;3.17;;;;;;;19.77;50.99;100281.19;5086053;28;20858;-51
2021/05/25 01:17:57;;;;;;;5.00;3.00;;;;;;;19.58;51.86;100275.16;5097350;28;20466;-49
2021/05/25 01:20:27;;;;;;;4.90;3.17;;;;;;;19.87;51.03;100271.56;5095500;28;20779;-50
2021/05/25 01:22:55;;;;;;;7.93;3.00;;;;;;;19.65;51.56;100276.88;5096783;28;20782;-50
2021/05/25 01:25:23;;;;;;;4.57;3.13;;;;;;;19.82;51.00;100269.84;5096193;28;20477;-50
2021/05/25 01:27:53;;;;;;;5.60;3.10;;;;;;;19.75;51.18;100268.13;5096821;28;20458;-49
2021/05/25 01:30:21;;;;;;;5.77;3.23;;;;;;;19.86;51.00;100277.66;5095072;28;20502;-53
2021/05/25 01:32:48;;;;;;;4.00;2.43;;;;;;;20.10;49.83;100274.97;5096786;28;20569;-56
2021/05/25 01:35:15;;;;;;;9.23;3.17;;;;;;;20.17;49.65;100269.69;5094763;28;20486;-53
2021/05/25 01:37:43;;;;;;;5.20;2.87;;;;;;;20.23;49.44;100264.44;5096777;28;20502;-56
2021/05/25 01:40:12;;;;;;;4.03;2.60;;;;;;;20.19;49.93;100268.81;5095367;28;20780;-51
2021/05/25 01:42:40;;;;;;;6.10;2.80;;;;;;;19.74;51.00;100271.59;5096131;28;20507;-48
2021/05/25 01:45:10;;;;;;;6.90;3.30;;;;;;;19.99;50.43;100273.28;5095072;28;20764;-51
2021/05/25 01:47:37;;;;;;;6.53;3.70;;;;;;;20.03;50.08;100268.03;5096834;28;20548;-54
2021/05/25 01:50:14;;;;;;;4.73;3.03;;;;;;;20.05;50.19;100270.66;5093932;28;20790;-54
2021/05/25 01:52:57;;;;;;;5.87;3.40;;;;;;;20.20;49.82;100264.47;5096323;28;20481;-55
2021/05/25 01:55:28;;;;;;;5.17;2.80;;;;;;;19.87;51.11;100258.47;5095555;28;20473;-52
2021/05/25 01:57:56;;;;;;;5.60;3.17;;;;;;;19.71;51.12;100269.00;5096690;28;20537;-50
2021/05/25 02:00:24;;;;;;;5.47;3.37;;;;;;;19.61;51.23;100269.91;5094754;28;20501;-50
2021/05/25 02:02:51;;;;;;;6.07;2.87;;;;;;;19.30;51.71;100276.97;5095994;28;20517;-52
2021/05/25 02:05:19;;;;;;;8.03;3.27;;;;;;;19.14;52.30;100272.66;5094390;28;20794;-50
2021/05/25 02:07:47;;;;;;;36.00;17.60;;;;;;;19.24;52.21;100273.50;5096211;28;20445;-49
2021/05/25 02:10:26;;;;;;;111.40;52.07;;;;;;;19.40;51.84;100266.50;5094391;28;20526;-52
2021/05/25 02:12:54;;;;;;;5.20;3.50;;;;;;;19.30;51.75;100261.28;5096063;28;20584;-49
2021/05/25 02:15:21;;;;;;;9.60;4.67;;;;;;;19.26;51.74;100263.91;5094113;28;20485;-52
2021/05/25 02:17:49;;;;;;;5.00;2.63;;;;;;;19.08;52.14;100265.66;5095888;28;20462;-50
2021/05/25 02:20:16;;;;;;;10.67;3.60;;;;;;;19.09;52.14;100271.78;5093668;28;20472;-47
2021/05/25 02:22:44;;;;;;;7.07;3.67;;;;;;;19.12;51.98;100269.19;5095648;28;20509;-48
2021/05/25 02:25:11;;;;;;;10.17;5.53;;;;;;;19.26;51.91;100272.63;5094755;28;20482;-52
2021/05/25 02:27:39;;;;;;;5.30;3.60;;;;;;;19.36;51.53;100260.41;5096013;28;20454;-54
2021/05/25 02:30:07;;;;;;;6.87;4.43;;;;;;;19.30;51.45;100268.25;5094366;28;20478;-51
2021/05/25 02:32:34;;;;;;;5.67;3.67;;;;;;;18.65;53.73;100270.91;5095487;28;20741;-50
2021/05/25 02:35:05;;;;;;;6.07;3.10;;;;;;;19.00;52.48;100276.13;5094582;28;20788;-49
2021/05/25 02:37:32;;;;;;;5.10;2.93;;;;;;;18.66;53.23;100268.28;5095604;28;20557;-49
2021/05/25 02:39:59;;;;;;;4.60;3.10;;;;;;;18.83;53.21;100264.81;5094647;28;20929;-48
2021/05/25 02:42:26;;;;;;;4.30;3.13;;;;;;;18.56;53.79;100262.16;5095152;28;20894;-52
2021/05/25 02:44:54;;;;;;;6.40;4.00;;;;;;;18.72;53.38;100267.44;5094537;28;20485;-49
2021/05/25 02:47:21;;;;;;;5.80;4.03;;;;;;;19.14;52.59;100262.19;5095440;28;20468;-49
2021/05/25 02:49:48;;;;;;;6.37;3.53;;;;;;;19.12;52.19;100261.34;5091937;28;20482;-54
2021/05/25 02:52:15;;;;;;;5.63;3.70;;;;;;;18.48;53.73;100259.56;5095345;28;20454;-48
2021/05/25 02:54:43;;;;;;;8.43;3.70;;;;;;;18.73;53.16;100258.72;5092994;28;20473;-47
2021/05/25 02:57:10;;;;;;;7.67;4.10;;;;;;;18.57;53.47;100263.06;5095114;28;20553;-53
2021/05/25 02:59:37;;;;;;;5.20;3.20;;;;;;;19.23;51.92;100254.31;5073877;28;20942;-47
2021/05/25 03:02:05;;;;;;;8.23;4.30;;;;;;;19.31;51.94;100243.84;5075154;28;20477;-48
2021/05/25 03:04:32;;;;;;;5.10;3.47;;;;;;;18.84;51.38;100245.63;5074192;28;20484;-51
2021/05/25 03:06:59;;;;;;;8.33;3.27;;;;;;;19.06;51.77;100250.88;5075208;28;20462;-51
2021/05/25 03:09:29;;;;;;;4.97;3.50;;;;;;;18.38;53.11;100244.75;5074136;28;20497;-49
2021/05/25 03:11:56;;;;;;;12.87;4.17;;;;;;;18.69;52.92;100250.00;5074808;28;20462;-49
2021/05/25 03:14:24;;;;;;;3.93;3.10;;;;;;;18.68;52.79;100256.09;5073733;28;20502;-50
2021/05/25 03:16:51;;;;;;;5.93;2.90;;;;;;;18.45;53.07;100270.00;5074972;28;20541;-52
2021/05/25 03:19:19;;;;;;;7.10;4.30;;;;;;;18.77;52.85;100265.69;5073762;28;20542;-48
2021/05/25 03:21:46;;;;;;;7.57;3.30;;;;;;;18.68;52.62;100256.09;5074774;28;20455;-50
2021/05/25 03:24:16;;;;;;;4.90;3.47;;;;;;;18.17;53.25;100262.13;5073580;28;20966;-51
2021/05/25 03:26:43;;;;;;;8.20;3.50;;;;;;;18.08;53.86;100255.16;5074657;28;20453;-49
2021/05/25 03:29:10;;;;;;;8.13;5.00;;;;;;;18.59;52.62;100266.53;5073904;28;20465;-48
2021/05/25 03:31:37;;;;;;;6.40;3.60;;;;;;;18.49;52.34;100271.75;5076189;28;20606;-52
2021/05/25 03:34:04;;;;;;;7.93;4.00;;;;;;;18.41;52.91;100273.47;5077772;28;20485;-50
2021/05/25 03:36:32;;;;;;;7.40;3.60;;;;;;;18.23;53.53;100279.53;5078620;28;20652;-48
2021/05/25 03:39:00;;;;;;;6.43;3.80;;;;;;;18.16;53.06;100277.78;5077543;28;20762;-52
2021/05/25 03:41:27;;;;;;;5.23;3.53;;;;;;;18.04;53.51;100278.56;5078266;28;20935;-50
2021/05/25 03:43:54;;;;;;;5.77;3.77;;;;;;;17.85;54.74;100278.53;5078833;28;20478;-51
2021/05/25 03:46:21;;;;;;;5.97;3.90;;;;;;;17.81;53.65;100280.22;5078126;28;20473;-49
2021/05/25 03:48:48;;;;;;;6.60;4.13;;;;;;;17.90;53.26;100282.00;5078656;28;20455;-52
2021/05/25 03:51:15;;;;;;;7.40;3.37;;;;;;;17.84;54.14;100287.19;5076706;28;20807;-52
2021/05/25 03:53:43;;;;;;;6.13;3.40;;;;;;;17.83;53.71;100289.81;5078370;28;20518;-52
2021/05/25 03:56:17;;;;;;;7.00;3.80;;;;;;;17.89;54.07;100284.63;5077156;28;20501;-47
2021/05/25 03:58:49;;;;;;;9.47;4.70;;;;;;;18.05;53.17;100280.34;5096050;28;20914;-49
2021/05/25 04:01:18;;;;;;;5.17;3.83;;;;;;;17.37;54.75;100289.56;5097143;28;20480;-50
2021/05/25 04:03:46;;;;;;;12.03;4.40;;;;;;;17.63;53.94;100290.56;5098422;28;20557;-46
2021/05/25 04:06:13;;;;;;;5.73;4.20;;;;;;;18.03;53.63;100289.88;5097128;28;20482;-50
2021/05/25 04:08:40;;;;;;;7.30;4.30;;;;;;;17.92;54.28;100295.06;5098560;28;20464;-50
2021/05/25 04:11:08;;;;;;;6.23;4.33;;;;;;;17.30;53.80;100300.81;5096661;28;20478;-53
2021/05/25 04:13:35;;;;;;;11.27;4.80;;;;;;;17.43;54.61;100308.72;5098270;28;20942;-53
2021/05/25 04:16:03;;;;;;;6.83;4.47;;;;;;;17.20;54.55;100307.72;5097050;28;20789;-50
2021/05/25 04:18:30;;;;;;;6.27;4.23;;;;;;;17.47;54.26;100307.88;5098360;28;20461;-51
2021/05/25 04:20:57;;;;;;;6.77;4.50;;;;;;;17.92;52.90;100309.00;5096380;28;20488;-51
2021/05/25 04:23:25;;;;;;;6.33;4.43;;;;;;;17.33;54.41;100316.47;5098244;28;20517;-53
2021/05/25 04:25:53;;;;;;;5.87;4.13;;;;;;;17.30;54.25;100310.38;5096939;28;20568;-50
2021/05/25 04:28:21;;;;;;;5.77;4.30;;;;;;;17.34;53.75;100312.16;5098098;28;20453;-53
2021/05/25 04:30:48;;;;;;;6.80;4.93;;;;;;;17.74;52.56;100295.88;5096330;28;20569;-52
2021/05/25 04:33:15;;;;;;;6.50;4.60;;;;;;;17.43;54.29;100308.72;5097882;28;20487;-47
2021/05/25 04:35:42;;;;;;;6.10;4.20;;;;;;;17.61;52.94;100316.66;5096552;28;20496;-48
2021/05/25 04:38:10;;;;;;;7.20;4.03;;;;;;;17.48;53.30;100314.84;5098038;28;20556;-47
2021/05/25 04:40:40;;;;;;;5.93;4.33;;;;;;;17.07;54.12;100317.16;5096068;28;20495;-51
2021/05/25 04:43:07;;;;;;;5.37;3.87;;;;;;;17.29;53.33;100319.94;5096662;28;20512;-50
2021/05/25 04:45:36;;;;;;;4.60;3.47;;;;;;;17.12;53.49;100323.28;5096021;28;20470;-50
2021/05/25 04:48:04;;;;;;;7.40;4.10;;;;;;;17.38;53.55;100325.22;5097883;28;20552;-49
2021/05/25 04:50:31;;;;;;;7.50;4.00;;;;;;;17.24;53.25;100321.63;5096070;28;20485;-50
2021/05/25 04:52:59;;;;;;;5.67;3.30;;;;;;;17.52;52.26;100324.41;5097625;28;20478;-47
2021/05/25 04:55:26;;;;;;;5.87;3.50;;;;;;;17.29;52.49;100319.94;5096424;28;20484;-51
2021/05/25 04:57:53;;;;;;;10.23;5.20;;;;;;;17.28;52.96;100328.63;5097627;28;20831;-49
2021/05/25 05:00:23;;;;;;;7.33;3.53;;;;;;;16.96;53.54;100326.59;5095820;28;20473;-52
2021/05/25 05:02:51;;;;;;;9.20;4.30;;;;;;;17.17;53.19;100333.75;5096901;28;20791;-53
2021/05/25 05:05:18;;;;;;;6.47;3.60;;;;;;;17.14;52.96;100325.91;5096299;28;20526;-47
2021/05/25 05:07:46;;;;;;;5.37;3.70;;;;;;;17.13;54.09;100335.44;5097459;28;20458;-48
2021/05/25 05:10:15;;;;;;;7.93;2.50;;;;;;;16.92;54.63;100333.50;5095581;28;20488;-50
2021/05/25 05:12:42;;;;;;;6.13;4.00;;;;;;;17.12;54.84;100336.31;5097001;28;20469;-49
2021/05/25 05:15:10;;;;;;;6.80;3.97;;;;;;;16.94;54.64;100344.84;5095664;28;20599;-49
2021/05/25 05:17:37;;;;;;;5.33;3.80;;;;;;;17.52;52.85;100337.47;5097335;28;20525;-52
2021/05/25 05:20:07;;;;;;;5.63;3.60;;;;;;;17.04;54.15;100343.22;5095334;28;20491;-51
2021/05/25 05:22:34;;;;;;;5.03;3.20;;;;;;;16.73;55.31;100341.16;5096986;28;20454;-48
2021/05/25 05:25:03;;;;;;;5.23;3.40;;;;;;;16.83;55.20;100347.31;5095613;28;20481;-52
2021/05/25 05:27:30;;;;;;;6.10;3.77;;;;;;;16.95;55.28;100350.91;5096830;28;20551;-50
2021/05/25 05:29:57;;;;;;;5.43;3.73;;;;;;;16.99;54.46;100347.47;5095670;28;20800;-51
2021/05/25 05:32:24;;;;;;;8.30;3.63;;;;;;;16.94;55.02;100349.16;5096432;28;20887;-48
2021/05/25 05:34:51;;;;;;;4.70;3.00;;;;;;;16.09;56.95;100356.94;5095312;28;20492;-52
2021/05/25 05:37:19;;;;;;;4.77;3.20;;;;;;;16.72;55.98;100356.78;5096723;28;20900;-49
2021/05/25 05:39:47;;;;;;;5.07;2.93;;;;;;;16.18;56.89;100357.03;5095536;28;20481;-51
2021/05/25 05:42:15;;;;;;;9.73;3.40;;;;;;;16.26;56.33;100355.41;5096262;28;20449;-51
2021/05/25 05:44:43;;;;;;;7.20;3.97;;;;;;;16.65;55.38;100347.13;5094709;28;20474;-50
2021/05/25 05:47:10;;;;;;;4.60;2.70;;;;;;;16.57;55.11;100354.88;5096413;28;20458;-47
2021/05/25 05:49:38;;;;;;;4.47;2.90;;;;;;;16.81;55.07;100354.25;5095293;28;20481;-50
2021/05/25 05:52:06;;;;;;;4.07;2.63;;;;;;;16.68;55.49;100349.78;5096128;28;20487;-48
2021/05/25 05:54:34;;;;;;;7.13;4.07;;;;;;;16.84;54.92;100343.88;5093855;28;20478;-50
2021/05/25 05:57:01;;;;;;;5.77;3.23;;;;;;;16.57;55.89;100344.47;5096477;28;20492;-47
2021/05/25 05:59:28;;;;;;;4.70;3.20;;;;;;;16.63;55.79;100343.66;5095080;28;20473;-52
2021/05/25 06:01:55;;;;;;;6.03;3.60;;;;;;;17.20;55.10;100341.59;5095602;28;20449;-51
2021/05/25 06:04:23;;;;;;;6.60;3.83;;;;;;;17.37;54.26;100343.44;5094685;28;20485;-52
2021/05/25 06:06:50;;;;;;;10.40;5.37;;;;;;;17.33;54.35;100342.53;5096172;28;20512;-48
2021/05/25 06:09:17;;;;;;;6.90;4.30;;;;;;;17.10;54.35;100342.38;5094710;28;20557;-49
2021/05/25 06:11:51;;;;;;;6.10;4.00;;;;;;;17.22;54.25;100339.00;5095873;28;20569;-53
2021/05/25 06:14:20;;;;;;;6.90;4.70;;;;;;;17.33;53.53;100342.53;5094828;28;20557;-50
2021/05/25 06:16:47;;;;;;;6.17;4.30;;;;;;;17.12;55.11;100333.72;5096074;28;20607;-48
2021/05/25 06:19:14;;;;;;;8.60;5.23;;;;;;;17.40;54.67;100344.31;5094720;28;20454;-45
2021/05/25 06:21:41;;;;;;;7.43;4.40;;;;;;;17.20;54.66;100340.72;5095313;28;20489;-47
2021/05/25 06:24:09;;;;;;;9.30;4.60;;;;;;;17.51;53.73;100336.59;5094609;28;20493;-46
2021/05/25 06:26:36;;;;;;;8.60;4.07;;;;;;;17.18;53.52;100337.22;5095849;28;20454;-49
2021/05/25 06:29:04;;;;;;;4.77;3.73;;;;;;;17.26;53.51;100338.16;5094023;28;20464;-47
2021/05/25 06:31:31;;;;;;;6.30;4.50;;;;;;;17.44;53.84;100344.38;5095343;28;20500;-46
2021/05/25 06:33:58;;;;;;;8.23;5.00;;;;;;;17.95;52.67;100353.34;5094210;28;20487;-50
2021/05/25 06:36:26;;;;;;;7.20;4.33;;;;;;;17.93;52.04;100342.03;5095595;28;20922;-47
2021/05/25 06:38:53;;;;;;;9.97;4.83;;;;;;;17.34;53.41;100349.50;5095483;28;20897;-47
2021/05/25 06:41:20;;;;;;;8.07;5.63;;;;;;;17.80;52.22;100353.28;5093916;28;20480;-52
2021/05/25 06:43:47;;;;;;;8.40;4.27;;;;;;;17.49;52.49;100353.09;5095657;28;20830;-51
2021/05/25 06:46:15;;;;;;;7.67;5.30;;;;;;;17.04;53.72;100351.03;5094137;28;20477;-49
2021/05/25 06:48:42;;;;;;;8.13;5.43;;;;;;;17.54;52.76;100359.22;5095329;28;20464;-48
2021/05/25 06:51:09;;;;;;;7.73;5.77;;;;;;;17.08;52.89;100358.00;5093668;28;20488;-51
2021/05/25 06:53:36;;;;;;;9.47;5.97;;;;;;;16.87;53.40;100364.72;5095637;28;20481;-52
2021/05/25 06:56:04;;;;;;;8.83;6.10;;;;;;;16.76;54.85;100361.13;5094202;28;20473;-51
2021/05/25 06:58:32;;;;;;;12.80;8.33;;;;;;;16.86;55.37;100363.00;5095432;28;20463;-47
2021/05/25 07:00:59;;;;;;;10.30;4.60;;;;;;;16.44;54.31;100369.50;5093811;28;20474;-51
2021/05/25 07:03:27;;;;;;;8.43;4.97;;;;;;;16.56;54.65;100361.81;5094960;28;20567;-52
2021/05/25 07:05:54;;;;;;;8.73;6.83;;;;;;;16.79;54.12;100366.41;5094033;28;20483;-46
2021/05/25 07:08:21;;;;;;;11.10;8.00;;;;;;;16.77;54.68;100378.50;5099825;28;20478;-53
2021/05/25 07:10:48;;;;;;;9.60;7.10;;;;;;;16.67;55.10;100382.75;5097474;28;20495;-50
2021/05/25 07:13:15;;;;;;;8.43;5.60;;;;;;;16.59;53.93;100376.59;5099404;28;20580;-52
2021/05/25 07:15:42;;;;;;;12.03;8.33;;;;;;;16.83;53.97;100377.72;5098243;28;20488;-51
2021/05/25 07:18:10;;;;;;;10.83;7.63;;;;;;;16.43;54.57;100385.97;5099639;28;20766;-51
2021/05/25 07:20:38;;;;;;;10.40;7.73;;;;;;;16.81;54.39;100380.31;5097876;28;20476;-47
2021/05/25 07:23:07;;;;;;;13.83;8.53;;;;;;;17.33;53.59;100386.88;5099068;28;20542;-50
2021/05/25 07:25:34;;;;;;;12.13;7.87;;;;;;;16.60;54.31;100381.84;5098172;28;20481;-51
2021/05/25 07:28:01;;;;;;;12.90;8.57;;;;;;;16.79;55.21;100386.34;5099326;28;20552;-48
2021/05/25 07:30:28;;;;;;;10.17;7.43;;;;;;;16.59;54.90;100384.41;5097640;28;20485;-51
2021/05/25 07:32:56;;;;;;;11.70;8.13;;;;;;;16.93;54.40;100384.78;5098929;28;20485;-53
2021/05/25 07:35:23;;;;;;;8.67;7.13;;;;;;;17.19;52.66;100391.09;5097798;28;20474;-49
2021/05/25 07:37:51;;;;;;;12.70;7.90;;;;;;;17.10;53.42;100390.16;5099235;28;20454;-49
2021/05/25 07:40:18;;;;;;;9.00;6.50;;;;;;;17.16;53.03;100385.88;5097516;28;20478;-47
2021/05/25 07:42:46;;;;;;;10.70;7.13;;;;;;;17.33;51.75;100384.25;5098913;28;20469;-48
2021/05/25 07:45:15;;;;;;;7.70;5.30;;;;;;;17.08;51.63;100391.88;5097372;28;20521;-54
2021/05/25 07:47:43;;;;;;;10.23;6.40;;;;;;;16.86;52.50;100391.66;5099073;28;20566;-52
2021/05/25 07:50:14;;;;;;;8.60;6.17;;;;;;;17.69;51.14;100397.56;5097166;28;20509;-51
2021/05/25 07:52:42;;;;;;;8.27;5.63;;;;;;;17.92;50.81;100395.09;5098736;28;20485;-51
2021/05/25 07:55:14;;;;;;;6.20;3.63;;;;;;;17.53;50.78;100387.03;5097356;28;20570;-51
2021/05/25 07:57:42;;;;;;;4.90;2.67;;;;;;;17.12;49.08;100392.78;5098053;28;20468;-51
2021/05/25 08:00:12;;;;;;;6.40;4.10;;;;;;;17.22;51.20;100391.16;5097557;28;20556;-50
2021/05/25 08:02:39;;;;;;;4.67;2.73;;;;;;;16.98;50.12;100387.41;5098507;28;20543;-49
2021/05/25 08:05:07;;;;;;;6.73;3.80;;;;;;;17.76;49.75;100399.38;5097105;28;20524;-52
2021/05/25 08:07:34;;;;;;;6.87;4.03;;;;;;;17.65;48.17;100393.19;5098615;28;20449;-53
2021/05/25 08:10:04;;;;;;;6.97;3.50;;;;;;;17.53;49.04;100392.25;5097226;28;20473;-53
2021/05/25 08:12:33;;;;;;;8.23;5.17;;;;;;;18.30;48.91;100396.19;5098391;28;20508;-49
2021/05/25 08:15:02;;;;;;;4.40;2.40;;;;;;;17.92;47.23;100389.88;5097016;28;20568;-47
2021/05/25 08:17:41;;;;;;;4.57;2.63;;;;;;;18.20;47.89;100389.19;5098489;28;20759;-52
2021/05/25 08:20:15;;;;;;;3.93;2.30;;;;;;;18.21;47.66;100383.09;5096843;28;20487;-50
2021/05/25 08:23:06;;;;;;;2.83;1.27;;;;;;;17.66;47.05;100398.44;5097858;28;20477;-50
2021/05/25 08:25:33;;;;;;;5.07;1.67;;;;;;;17.59;46.24;100401.84;5096881;28;20930;-49
2021/05/25 08:28:04;;;;;;;4.93;2.60;;;;;;;17.52;47.29;100402.66;5098198;28;20954;-54
2021/05/25 08:30:35;;;;;;;3.30;1.93;;;;;;;17.71;47.13;100408.88;5096580;28;20482;-50
2021/05/25 08:33:03;;;;;;;5.47;2.53;;;;;;;17.55;47.90;100405.31;5097772;28;20512;-48
2021/05/25 08:35:37;;;;;;;3.27;2.13;;;;;;;17.53;46.86;100410.50;5096925;28;20509;-47
2021/05/25 08:38:05;;;;;;;5.37;2.50;;;;;;;17.36;47.47;100415.59;5098044;28;20531;-50
2021/05/25 08:40:34;;;;;;;4.20;2.77;;;;;;;17.92;46.79;100416.00;5096486;28;20572;-51
2021/05/25 08:43:03;;;;;;;10.10;4.23;;;;;;;17.96;47.72;100419.47;5097654;28;20477;-50
2021/05/25 08:45:30;;;;;;;4.50;2.37;;;;;;;17.61;46.56;100415.78;5096350;28;20860;-48
2021/05/25 08:47:58;;;;;;;5.00;2.53;;;;;;;17.48;47.31;100424.38;5097907;28;20458;-47
2021/05/25 08:50:45;;;;;;;5.10;1.63;;;;;;;16.85;46.15;100420.28;5096248;28;20482;-47
2021/05/25 08:53:13;;;;;;;3.43;1.83;;;;;;;17.23;45.56;100430.25;5097455;28;20490;-51
2021/05/25 08:55:42;;;;;;;4.97;1.70;;;;;;;17.43;44.91;100434.75;5096250;28;20486;-52
2021/05/25 08:58:10;;;;;;;2.73;1.63;;;;;;;17.83;45.67;100431.56;5097730;28;20548;-53
2021/05/25 09:00:37;;;;;;;3.77;1.67;;;;;;;17.36;44.89;100435.56;5095882;28;20509;-50
2021/05/25 09:03:05;;;;;;;3.33;1.50;;;;;;;17.55;44.17;100431.38;5097047;28;20478;-50
2021/05/25 09:05:34;;;;;;;3.93;1.90;;;;;;;18.27;45.14;100431.84;5096303;28;20573;-53
2021/05/25 09:08:01;;;;;;;3.63;2.30;;;;;;;18.53;44.38;100433.69;5097350;28;20464;-46
2021/05/25 09:10:37;;;;;;;4.13;1.90;;;;;;;18.16;43.47;100429.19;5095301;28;20474;-49
2021/05/25 09:13:12;;;;;;;4.17;2.10;;;;;;;18.43;43.93;100432.78;5076945;28;20494;-50
2021/05/25 09:15:43;;;;;;;7.00;2.17;;;;;;;18.55;44.64;100434.59;5075985;28;20482;-53
2021/05/25 09:18:11;;;;;;;5.67;2.50;;;;;;;18.16;45.58;100437.88;5076916;28;20458;-54
2021/05/25 09:20:40;;;;;;;3.73;2.27;;;;;;;18.41;45.15;100435.38;5075183;28;20483;-54
2021/05/25 09:23:08;;;;;;;4.70;2.73;;;;;;;18.28;45.20;100436.19;5076314;28;21036;-53
2021/05/25 09:25:35;;;;;;;4.20;2.60;;;;;;;18.17;46.38;100446.59;5075708;28;20481;-52
2021/05/25 09:28:07;;;;;;;6.00;2.80;;;;;;;17.42;49.74;100451.25;5076900;28;20852;-48
2021/05/25 09:30:36;;;;;;;7.33;3.83;;;;;;;17.45;49.53;100450.41;5074680;28;20510;-50
2021/05/25 09:33:05;;;;;;;5.90;3.37;;;;;;;17.82;47.92;100453.31;5076387;28;20846;-53
2021/05/25 09:35:34;;;;;;;5.43;2.87;;;;;;;17.12;48.80;100453.59;5075264;28;20477;-49
2021/05/25 09:38:08;;;;;;;4.27;2.17;;;;;;;17.07;48.85;100460.50;5076496;28;20546;-51
2021/05/25 09:40:36;;;;;;;4.07;2.30;;;;;;;17.24;46.85;100457.19;5086722;28;20516;-52
2021/05/25 09:43:15;;;;;;;14.00;5.60;;;;;;;17.86;45.57;100447.25;5095473;28;20494;-51
2021/05/25 09:45:57;;;;;;;9.33;4.87;;;;;;;18.02;46.61;100448.22;5095107;28;20499;-52
2021/05/25 09:48:26;;;;;;;16.53;6.67;;;;;;;18.41;45.50;100440.59;5096564;28;20466;-51
2021/05/25 09:50:54;;;;;;;14.60;5.93;;;;;;;18.47;42.49;100443.25;5094745;28;20478;-50
2021/05/25 09:53:23;;;;;;;12.10;5.47;;;;;;;18.12;43.09;100443.06;5096103;28;20955;-54
2021/05/25 09:55:52;;;;;;;22.47;9.53;;;;;;;19.40;42.06;100433.91;5094660;28;20480;-50
2021/05/25 09:58:20;;;;;;;6.00;3.10;;;;;;;19.19;42.70;100429.53;5095470;28;20565;-48
2021/05/25 10:00:47;;;;;;;20.30;7.63;;;;;;;18.17;43.62;100437.03;5094684;28;20481;-51
2021/05/25 10:03:20;;;;;;;13.07;5.70;;;;;;;18.72;42.71;100429.41;5096105;28;20812;-48
2021/05/25 10:05:49;;;;;;;8.57;4.57;;;;;;;19.06;42.32;100432.13;5094403;28;20481;-49
2021/05/25 10:08:17;;;;;;;7.33;3.90;;;;;;;18.28;43.59;100423.13;5095984;28;20454;-51
2021/05/25 10:10:45;;;;;;;5.03;3.10;;;;;;;18.51;44.87;100423.22;5094385;28;20551;-51
2021/05/25 10:13:14;;;;;;;14.87;4.73;;;;;;;19.64;42.14;100432.16;5095904;28;20568;-47
2021/05/25 10:15:42;;;;;;;10.93;6.20;;;;;;;19.84;41.09;100432.97;5094640;28;20565;-52
2021/05/25 10:21:07;;;;;;;9.03;4.13;;;;;;;18.59;43.67;100434.59;5094747;28;20474;-52
2021/05/25 10:23:36;;;;;;;12.20;5.90;;;;;;;19.08;43.39;100439.97;5095324;28;20528;-49
2021/05/25 10:26:05;;;;;;;9.53;4.23;;;;;;;19.05;43.98;100447.78;5094230;28;20503;-52
2021/05/25 10:28:33;;;;;;;12.60;6.40;;;;;;;18.49;44.14;100441.53;5095867;28;20450;-50
2021/05/25 10:31:01;;;;;;;7.77;4.53;;;;;;;18.67;44.05;100445.06;5093896;28;20481;-47
2021/05/25 10:33:33;;;;;;;8.70;3.83;;;;;;;18.14;44.53;100447.44;5095586;28;20803;-51
2021/05/25 10:36:02;;;;;;;7.40;4.43;;;;;;;17.95;45.00;100443.84;5094201;28;20552;-49
2021/05/25 10:38:32;;;;;;;6.03;3.10;;;;;;;17.53;47.37;100453.94;5095808;28;20454;-55
2021/05/25 10:41:00;;;;;;;68.73;29.73;;;;;;;18.22;46.56;100448.34;5093303;28;20477;-47
2021/05/25 10:43:46;;;;;;;14.93;3.63;;;;;;;17.87;44.85;100455.94;5095381;28;20564;-46
2021/05/25 10:46:31;;;;;;;13.27;6.10;;;;;;;17.81;43.40;100454.19;5094086;28;20559;-47
2021/05/25 10:49:10;;;;;;;9.97;4.83;;;;;;;18.29;43.14;100453.59;5094237;28;20830;-51
2021/05/25 10:52:16;;;;;;;60.53;17.10;;;;;;;18.77;42.83;100440.75;5093572;28;20548;-51
2021/05/25 10:54:50;;;;;;;27.23;6.90;;;;;;;19.89;41.20;100447.81;5094188;28;20484;-53
2021/05/25 10:57:48;;;;;;;9.83;2.90;;;;;;;19.09;42.55;100441.72;5095666;28;20557;-50
2021/05/25 11:00:21;;;;;;;14.33;5.40;;;;;;;19.32;43.21;100451.34;5094896;28;20565;-47
2021/05/25 11:02:53;;;;;;;7.00;4.30;;;;;;;19.32;43.51;100440.88;5094940;28;20469;-48
2021/05/25 11:05:47;;;;;;;49.03;16.17;;;;;;;18.95;43.20;100431.19;5093680;28;20954;-52
2021/05/25 11:08:25;;;;;;;6.73;4.70;;;;;;;18.78;44.04;100444.22;5111325;28;20471;-51
2021/05/25 11:11:04;;;;;;;7.57;3.80;;;;;;;19.94;41.94;100451.31;5113988;27;20500;-53
2021/05/25 11:13:35;;;;;;;6.60;3.70;;;;;;;19.55;42.94;100443.47;5090411;28;20582;-51
2021/05/25 11:16:07;;;;;;;34.70;11.93;;;;;;;19.75;40.86;100443.47;5094124;28;20505;-52
2021/05/25 11:18:38;;;;;;;6.83;2.83;;;;;;;19.79;41.17;100446.97;5095376;28;20544;-50
2021/05/25 11:21:14;;;;;;;10.60;4.23;;;;;;;19.76;39.71;100444.34;5092799;28;20470;-53
2021/05/25 11:23:42;;;;;;;16.77;3.10;;;;;;;19.75;39.46;100446.09;5094881;28;20860;-50
2021/05/25 11:26:10;;;;;;;4.83;1.60;;;;;;;19.65;39.66;100447.81;5093197;28;20478;-51
2021/05/25 11:29:15;;;;;;;6.73;2.43;;;;;;;20.72;38.45;100435.31;5095245;28;20463;-52
2021/05/25 11:31:42;;;;;;;8.23;2.40;;;;;;;21.32;36.57;100434.06;5094205;28;20458;-51
2021/05/25 11:34:09;;;;;;;7.37;3.00;;;;;;;20.68;37.20;100441.44;5093489;28;21186;-54
2021/05/25 11:36:36;;;;;;;6.80;2.30;;;;;;;21.27;37.07;100430.63;5095013;28;21190;-47